Time;durP1;ratioP1;P1;durP2;ratioP2;P2;SDS_P1;SDS_P2;PMS_P1;PMS_P2;Temp;Humidity;BMP_temperature;BMP_pressure;BME280_temperature;BME280_humidity;BME280_pressure;Samples;Min_cycle;Max_cycle;Signal;HPM_P1;HPM_P2
2022/01/20 00:05:12;;;;;;;61.57;56.50;;;;;;;5.15;100.00;103249.50;2012110;71;33265;-79
2022/01/20 00:23:16;;;;;;;64.00;58.90;;;;;;;5.26;100.00;103264.70;2005311;71;33394;-78
2022/01/20 00:28:58;;;;;;;64.10;59.20;;;;;;;5.20;100.00;103259.42;2005799;71;32834;-78
2022/01/20 00:35:08;;;;;;;62.63;58.07;;;;;;;5.05;100.00;103256.66;2002178;71;32884;-78
2022/01/20 00:40:40;;;;;;;61.30;56.83;;;;;;;5.02;100.00;103259.80;2016808;71;32799;-77
2022/01/20 00:46:25;;;;;;;60.43;56.23;;;;;;;5.07;100.00;103275.77;2008345;71;32857;-77
2022/01/20 00:52:11;;;;;;;61.73;56.83;;;;;;;5.09;100.00;103279.20;2006211;71;32886;-77
2022/01/20 00:57:55;;;;;;;63.40;58.67;;;;;;;5.03;100.00;103261.52;2001954;71;32741;-77
2022/01/20 01:03:39;;;;;;;64.00;59.07;;;;;;;4.97;100.00;103265.55;1995346;71;33222;-76
2022/01/20 01:09:23;;;;;;;62.77;58.10;;;;;;;4.89;100.00;103264.25;2015067;71;32791;-78
2022/01/20 01:15:15;;;;;;;63.57;58.93;;;;;;;4.92;100.00;103279.05;2014983;71;32800;-77
2022/01/20 01:21:14;;;;;;;64.03;59.23;;;;;;;4.86;100.00;103276.52;2008085;71;32750;-78
2022/01/20 01:26:59;;;;;;;62.60;58.00;;;;;;;4.81;100.00;103278.12;2002507;71;32795;-79
2022/01/20 01:32:49;;;;;;;64.60;59.43;;;;;;;4.83;100.00;103290.67;1991639;71;33311;-77
2022/01/20 01:38:41;;;;;;;64.33;59.57;;;;;;;4.60;100.00;103299.48;2009302;71;32802;-78
2022/01/20 01:44:29;;;;;;;62.40;57.73;;;;;;;4.70;100.00;103301.47;2000266;71;32812;-76
2022/01/20 01:50:14;;;;;;;63.57;58.63;;;;;;;4.74;100.00;103310.20;2000129;71;32793;-76
2022/01/20 01:56:02;;;;;;;60.93;56.07;;;;;;;4.69;100.00;103310.77;2016827;71;32849;-77
2022/01/20 02:01:47;;;;;;;63.03;57.97;;;;;;;4.63;100.00;103317.00;2000099;71;33313;-75
2022/01/20 02:19:44;;;;;;;62.10;57.40;;;;;;;4.57;100.00;103327.39;1997029;71;33238;-75
2022/01/20 02:25:31;;;;;;;65.10;59.83;;;;;;;4.58;100.00;103331.31;2011043;71;32807;-76
2022/01/20 02:31:16;;;;;;;63.63;58.83;;;;;;;4.61;100.00;103336.13;2012913;71;32878;-77
2022/01/20 02:37:06;;;;;;;62.50;57.80;;;;;;;4.60;100.00;103329.77;1994879;71;32996;-76
2022/01/20 02:48:48;;;;;;;65.43;60.57;;;;;;;4.22;100.00;103343.14;2014929;71;32910;-77
2022/01/20 02:54:33;;;;;;;65.27;60.37;;;;;;;4.08;100.00;103348.38;2002175;71;32813;-77
2022/01/20 03:00:19;;;;;;;60.83;56.30;;;;;;;4.02;100.00;103358.72;2016498;71;32806;-75
2022/01/20 03:06:05;;;;;;;63.37;58.30;;;;;;;4.04;100.00;103366.28;2002147;71;33390;-76
2022/01/20 03:11:49;;;;;;;62.57;57.87;;;;;;;3.94;100.00;103376.64;1998814;71;32827;-76
2022/01/20 03:17:33;;;;;;;61.27;56.67;;;;;;;4.08;100.00;103369.53;2009467;71;32837;-78
2022/01/20 03:23:18;;;;;;;63.80;59.10;;;;;;;3.96;100.00;103364.09;2009860;71;32852;-77
2022/01/20 03:29:02;;;;;;;62.60;57.27;;;;;;;4.04;100.00;103355.80;1998958;71;32732;-77
2022/01/20 03:34:47;;;;;;;62.13;57.37;;;;;;;4.11;100.00;103376.89;1997098;71;32742;-77
2022/01/20 03:40:31;;;;;;;62.77;57.97;;;;;;;3.97;100.00;103402.43;2007558;71;33240;-76
2022/01/20 03:46:17;;;;;;;66.00;61.40;;;;;;;4.00;100.00;103410.83;2015051;71;32800;-77
2022/01/20 03:52:03;;;;;;;65.50;60.40;;;;;;;3.74;100.00;103411.62;2000772;71;32757;-78
2022/01/20 03:57:47;;;;;;;65.37;60.40;;;;;;;3.82;100.00;103412.45;2018611;71;33401;-78
2022/01/20 04:03:32;;;;;;;62.37;57.40;;;;;;;3.84;100.00;103420.02;2000830;71;32782;-77
2022/01/20 04:09:16;;;;;;;63.40;58.20;;;;;;;3.64;100.00;103416.80;1995038;71;32746;-77
2022/01/20 04:15:07;;;;;;;61.00;56.30;;;;;;;3.58;100.00;103412.55;2000767;71;33301;-77
2022/01/20 04:20:46;;;;;;;61.13;56.13;;;;;;;3.63;100.00;103427.48;2015026;70;32949;-77
2022/01/20 04:26:30;;;;;;;62.37;57.57;;;;;;;3.63;100.00;103429.38;2000080;71;32783;-77
2022/01/20 04:32:14;;;;;;;62.83;57.83;;;;;;;3.68;100.00;103432.97;2018309;71;32876;-76
2022/01/20 04:37:59;;;;;;;61.63;57.00;;;;;;;3.55;100.00;103427.48;2016726;70;32817;-75
2022/01/20 04:43:44;;;;;;;63.47;58.40;;;;;;;3.57;100.00;103426.80;2014838;71;32798;-78
2022/01/20 05:01:32;;;;;;;61.83;56.87;;;;;;;3.37;100.00;103452.95;1955356;71;39594;-75
2022/01/20 05:07:21;;;;;;;61.47;56.60;;;;;;;3.34;100.00;103460.70;2002309;71;32776;-76
2022/01/20 05:13:10;;;;;;;60.53;55.93;;;;;;;3.39;100.00;103466.50;1991338;71;33313;-77
2022/01/20 05:18:52;;;;;;;62.53;57.43;;;;;;;3.20;100.00;103460.87;2014585;71;32803;-76
2022/01/20 05:24:36;;;;;;;57.90;53.47;;;;;;;3.10;100.00;103480.27;2002044;71;32897;-77
2022/01/20 05:30:21;;;;;;;60.90;55.87;;;;;;;3.39;100.00;103492.09;2016874;71;32845;-77
2022/01/20 05:36:06;;;;;;;61.87;56.90;;;;;;;3.05;100.00;103488.67;1991468;71;32850;-75
2022/01/20 05:41:50;;;;;;;65.63;60.60;;;;;;;3.37;100.00;103514.77;2011148;71;32808;-75
2022/01/20 05:47:42;;;;;;;60.90;56.10;;;;;;;3.08;100.00;103519.39;2000898;71;32924;-76
2022/01/20 05:53:21;;;;;;;60.47;55.60;;;;;;;2.78;100.00;103509.08;1996936;71;32889;-76
2022/01/20 05:59:07;;;;;;;64.73;59.60;;;;;;;2.71;100.00;103515.74;2016570;71;32851;-74
2022/01/20 06:04:51;;;;;;;60.70;55.70;;;;;;;2.51;100.00;103518.44;2006264;70;32790;-77
2022/01/20 06:10:36;;;;;;;64.93;59.37;;;;;;;2.78;100.00;103524.69;2011383;71;32811;-78
2022/01/20 06:16:21;;;;;;;58.97;54.33;;;;;;;2.54;100.00;103537.30;2016608;71;33382;-76
2022/01/20 06:22:05;;;;;;;61.07;56.40;;;;;;;2.39;100.00;103530.75;2006443;71;32746;-77
2022/01/20 06:27:51;;;;;;;59.20;54.30;;;;;;;2.30;100.00;103529.00;2006369;71;32829;-74
2022/01/20 06:33:35;;;;;;;60.17;55.17;;;;;;;2.34;100.00;103537.75;1999160;71;33352;-76
2022/01/20 06:39:20;;;;;;;60.23;55.43;;;;;;;2.29;100.00;103534.99;2007628;71;32946;-76
2022/01/20 06:45:06;;;;;;;57.17;52.33;;;;;;;2.20;100.00;103545.58;1995194;71;33240;-76
2022/01/20 06:50:50;;;;;;;60.37;55.67;;;;;;;2.40;100.00;103563.98;2011560;71;32744;-73
2022/01/20 06:56:36;;;;;;;64.23;58.97;;;;;;;2.25;100.00;103559.66;2000726;71;33286;-74
2022/01/20 07:02:23;;;;;;;62.17;56.93;;;;;;;2.20;100.00;103568.02;2003501;71;32905;-73
2022/01/20 07:08:07;;;;;;;63.40;58.13;;;;;;;2.27;100.00;103575.93;2007694;71;32900;-75
2022/01/20 07:13:52;;;;;;;61.13;56.33;;;;;;;2.07;100.00;103594.52;2015013;71;33295;-75
2022/01/20 07:19:36;;;;;;;61.90;56.70;;;;;;;1.83;100.00;103591.12;2016738;71;32998;-74
2022/01/20 07:25:20;;;;;;;60.80;56.07;;;;;;;1.90;100.00;103598.68;2014629;71;32812;-77
2022/01/20 07:31:06;;;;;;;62.23;57.20;;;;;;;1.83;100.00;103597.11;2004148;71;32820;-77
2022/01/20 07:36:51;;;;;;;64.00;58.97;;;;;;;2.24;100.00;103607.30;2011272;70;32846;-79
2022/01/20 07:42:35;;;;;;;62.70;57.93;;;;;;;2.54;100.00;103609.16;2002557;71;32942;-75
2022/01/20 07:48:21;;;;;;;62.00;56.50;;;;;;;2.29;100.00;103618.64;2013241;71;33342;-74
2022/01/20 07:54:06;;;;;;;60.20;55.47;;;;;;;2.45;100.00;103617.86;2016785;71;32859;-73
2022/01/20 07:59:50;;;;;;;64.37;59.70;;;;;;;2.42;100.00;103627.80;2016657;71;32978;-73
2022/01/20 08:05:35;;;;;;;59.70;55.00;;;;;;;2.49;100.00;103632.97;1977706;72;33358;-74
2022/01/20 08:11:19;;;;;;;58.57;54.23;;;;;;;2.75;100.00;103642.01;2009697;71;32861;-75
2022/01/20 08:17:03;;;;;;;59.87;55.23;;;;;;;2.85;100.00;103654.23;2014956;71;32834;-77
2022/01/20 08:22:48;;;;;;;56.83;52.77;;;;;;;3.15;100.00;103659.66;2006361;71;33287;-74
2022/01/20 08:28:34;;;;;;;59.33;55.07;;;;;;;2.99;100.00;103670.59;2013173;71;32807;-77
2022/01/20 08:34:20;;;;;;;58.47;54.23;;;;;;;3.17;100.00;103671.31;2016424;71;32953;-74
2022/01/20 08:40:09;;;;;;;56.90;52.60;;;;;;;3.52;100.00;103688.91;2009315;71;32817;-76
2022/01/20 08:45:53;;;;;;;55.27;51.07;;;;;;;3.48;100.00;103693.03;2003995;71;32892;-75
2022/01/20 08:51:37;;;;;;;56.50;52.30;;;;;;;3.64;100.00;103704.05;2009581;71;32844;-74
2022/01/20 08:57:22;;;;;;;58.80;54.50;;;;;;;3.58;100.00;103713.50;2009236;71;33364;-79
2022/01/20 09:03:09;;;;;;;56.00;51.53;;;;;;;3.64;100.00;103711.42;2011485;70;32832;-76
2022/01/20 09:08:56;;;;;;;55.30;50.90;;;;;;;3.70;100.00;103725.02;2014801;70;32911;-76
2022/01/20 09:20:44;;;;;;;55.20;51.00;;;;;;;3.85;100.00;103745.33;2015084;71;33334;-76
2022/01/20 09:26:28;;;;;;;55.70;51.70;;;;;;;3.88;100.00;103755.98;2007439;71;32880;-76
2022/01/20 09:32:16;;;;;;;56.53;52.10;;;;;;;3.95;100.00;103757.88;2016607;71;32792;-77
2022/01/20 09:37:59;;;;;;;54.57;50.57;;;;;;;4.09;100.00;103759.09;2016392;71;32887;-77
2022/01/20 09:43:45;;;;;;;52.73;49.00;;;;;;;4.19;100.00;103765.81;1994553;70;32839;-79
2022/01/20 09:49:29;;;;;;;52.77;48.63;;;;;;;4.43;100.00;103761.15;2016469;71;32896;-77
2022/01/20 09:55:14;;;;;;;50.83;46.80;;;;;;;4.60;100.00;103761.98;1998856;71;32824;-75
2022/01/20 10:00:59;;;;;;;50.70;47.00;;;;;;;4.67;100.00;103762.13;2011413;71;33410;-76
2022/01/20 10:06:55;;;;;;;49.40;46.30;;;;;;;4.83;100.00;103766.25;2009212;71;32963;-78
2022/01/20 10:12:46;;;;;;;46.73;43.43;;;;;;;4.89;100.00;103780.67;2009828;71;33256;-79
2022/01/20 10:18:32;;;;;;;45.10;42.23;;;;;;;5.01;100.00;103784.25;1991301;71;32858;-77
2022/01/20 10:24:20;;;;;;;47.00;43.37;;;;;;;5.13;100.00;103794.91;2000147;71;32847;-78
2022/01/20 10:30:11;;;;;;;44.77;41.63;;;;;;;5.16;100.00;103794.03;2000525;71;32870;-78
2022/01/20 10:35:57;;;;;;;41.83;39.33;;;;;;;5.31;100.00;103796.89;2000378;71;32964;-77
2022/01/20 10:41:45;;;;;;;39.97;37.10;;;;;;;5.32;100.00;103800.85;2004250;71;32847;-78
2022/01/20 10:47:36;;;;;;;39.73;36.93;;;;;;;5.53;100.00;103810.41;2014922;71;33340;-77
2022/01/20 10:53:29;;;;;;;36.37;33.93;;;;;;;5.60;100.00;103823.84;2003773;71;32819;-77
2022/01/20 10:59:23;;;;;;;43.47;40.60;;;;;;;5.68;100.00;103832.06;2011068;71;32874;-74
2022/01/20 11:05:21;;;;;;;41.67;39.07;;;;;;;5.69;100.00;103829.11;1961553;72;33005;-76
2022/01/20 11:11:07;;;;;;;42.13;39.17;;;;;;;5.78;100.00;103827.16;2011884;71;32883;-74
2022/01/20 11:16:53;;;;;;;39.03;36.57;;;;;;;5.74;100.00;103822.53;2007817;71;32765;-76
2022/01/20 11:22:39;;;;;;;31.73;29.97;;;;;;;5.88;100.00;103812.67;2009690;71;32800;-76
2022/01/20 11:28:28;;;;;;;36.27;33.63;;;;;;;5.97;100.00;103801.92;2014642;71;32967;-76
2022/01/20 11:34:18;;;;;;;29.93;28.03;;;;;;;5.97;100.00;103779.84;2004070;71;32976;-75
2022/01/20 11:40:16;;;;;;;28.80;26.87;;;;;;;5.95;100.00;103768.12;2011119;71;33466;-76
2022/01/20 11:46:16;;;;;;;26.67;24.73;;;;;;;5.99;100.00;103753.46;2006018;71;33345;-77
2022/01/20 11:52:29;;;;;;;25.97;24.47;;;;;;;6.10;100.00;103731.80;1904565;75;33052;-73
2022/01/20 11:58:15;;;;;;;27.43;25.73;;;;;;;6.14;100.00;103723.48;2005545;71;32808;-76
2022/01/20 12:04:00;;;;;;;27.80;25.93;;;;;;;6.22;100.00;103721.16;2007876;71;32806;-77
2022/01/20 12:10:07;;;;;;;25.10;23.40;;;;;;;6.28;100.00;103728.72;2006322;71;32826;-77
2022/01/20 12:15:55;;;;;;;26.77;24.97;;;;;;;6.29;100.00;103722.98;2018478;71;32821;-71
2022/01/20 12:21:41;;;;;;;24.17;22.43;;;;;;;6.34;100.00;103708.63;2014939;71;32842;-73
2022/01/20 12:27:27;;;;;;;24.40;22.40;;;;;;;6.39;100.00;103702.02;1994911;71;33382;-72
2022/01/20 12:33:14;;;;;;;21.97;20.47;;;;;;;6.39;100.00;103709.79;2016234;71;32948;-76
2022/01/20 12:38:58;;;;;;;21.10;19.60;;;;;;;6.54;100.00;103711.72;1998345;71;33353;-77
2022/01/20 12:44:48;;;;;;;23.60;21.33;;;;;;;6.56;100.00;103700.81;2005652;71;33434;-73
2022/01/20 12:50:33;;;;;;;20.43;18.93;;;;;;;6.65;100.00;103707.10;2002191;70;32832;-74
2022/01/20 12:56:17;;;;;;;19.77;18.27;;;;;;;6.58;100.00;103705.64;1998732;71;33315;-73
2022/01/20 13:02:06;;;;;;;22.00;20.03;;;;;;;6.62;100.00;103700.59;2014650;71;32909;-73
2022/01/20 13:07:55;;;;;;;19.27;18.07;;;;;;;6.66;100.00;103704.68;2016680;70;32988;-75
2022/01/20 13:13:40;;;;;;;20.53;19.13;;;;;;;6.88;100.00;103697.34;2003956;71;33384;-73
2022/01/20 13:19:40;;;;;;;20.33;19.00;;;;;;;6.69;100.00;103698.77;2003602;71;32908;-74
2022/01/20 13:25:39;;;;;;;19.03;17.67;;;;;;;6.78;100.00;103694.34;2009250;71;32931;-75
2022/01/20 13:31:21;;;;;;;17.90;16.90;;;;;;;6.83;100.00;103701.55;2009062;70;32843;-75
2022/01/20 13:37:08;;;;;;;19.83;18.43;;;;;;;6.84;100.00;103700.50;2003863;71;34716;-73
2022/01/20 13:49:08;;;;;;;18.07;17.00;;;;;;;6.84;100.00;103703.78;2016416;71;33434;-75
2022/01/20 13:54:55;;;;;;;16.53;15.40;;;;;;;6.83;100.00;103711.73;2013093;71;32845;-73
2022/01/20 14:00:39;;;;;;;16.60;15.27;;;;;;;7.04;100.00;103693.86;2018311;71;32846;-74
2022/01/20 14:06:23;;;;;;;16.27;15.07;;;;;;;7.13;100.00;103681.65;2012976;71;33323;-74
2022/01/20 14:12:10;;;;;;;16.60;15.50;;;;;;;7.02;100.00;103677.97;2007652;71;32853;-73
2022/01/20 14:17:57;;;;;;;17.27;15.87;;;;;;;7.04;100.00;103686.09;2000558;71;33441;-73
2022/01/20 14:23:42;;;;;;;15.60;14.60;;;;;;;7.09;100.00;103689.13;2016625;71;32960;-73
2022/01/20 14:29:28;;;;;;;16.73;15.23;;;;;;;7.18;100.00;103690.22;2011181;71;32878;-76
2022/01/20 14:35:12;;;;;;;16.17;15.17;;;;;;;7.11;100.00;103692.55;2014934;71;33393;-74
2022/01/20 14:40:59;;;;;;;14.90;13.80;;;;;;;7.27;100.00;103714.47;2003837;71;33461;-74
2022/01/20 14:46:43;;;;;;;16.00;15.00;;;;;;;7.13;100.00;103712.58;2014892;71;32849;-75
2022/01/20 14:52:27;;;;;;;15.43;14.60;;;;;;;6.86;100.00;103740.36;2005748;71;32961;-74
2022/01/20 14:58:12;;;;;;;15.67;14.47;;;;;;;6.88;100.00;103748.47;2014918;70;32908;-74
2022/01/20 15:03:57;;;;;;;16.07;14.90;;;;;;;6.79;100.00;103761.00;1983717;71;33415;-79
2022/01/20 15:09:41;;;;;;;16.13;15.00;;;;;;;6.75;100.00;103769.85;2011911;71;32766;-78
2022/01/20 15:15:27;;;;;;;16.60;15.53;;;;;;;6.63;100.00;103774.95;2004384;71;32838;-78
2022/01/20 15:21:14;;;;;;;16.27;15.00;;;;;;;6.54;100.00;103768.34;1997300;71;32786;-79
2022/01/20 15:26:58;;;;;;;16.97;15.70;;;;;;;6.46;100.00;103770.62;2010017;71;33266;-74
2022/01/20 15:32:44;;;;;;;16.03;14.67;;;;;;;6.56;100.00;103767.61;2015185;70;32839;-76
2022/01/20 15:38:28;;;;;;;16.03;14.87;;;;;;;6.49;100.00;103773.04;2002202;71;32797;-74
2022/01/20 15:44:13;;;;;;;15.63;14.50;;;;;;;6.51;100.00;103765.41;2016955;70;32845;-76
2022/01/20 15:49:58;;;;;;;16.60;15.50;;;;;;;6.58;100.00;103780.73;1998324;71;32998;-79
2022/01/20 15:55:43;;;;;;;17.03;15.63;;;;;;;6.49;100.00;103766.14;2011083;71;32937;-72
2022/01/20 16:01:27;;;;;;;16.77;15.67;;;;;;;6.43;100.00;103765.48;2002351;71;32793;-75
2022/01/20 16:07:13;;;;;;;16.90;15.50;;;;;;;6.43;100.00;103758.59;2002506;71;33351;-72
2022/01/20 16:12:58;;;;;;;16.27;15.27;;;;;;;6.48;100.00;103757.51;1982017;71;32868;-75
2022/01/20 16:18:42;;;;;;;16.60;15.20;;;;;;;6.45;100.00;103754.27;2005691;71;33400;-75
2022/01/20 16:24:27;;;;;;;17.00;15.60;;;;;;;6.31;100.00;103756.80;2000083;71;32943;-73
2022/01/20 16:30:14;;;;;;;17.63;16.27;;;;;;;6.34;100.00;103761.94;2009911;71;33621;-74
2022/01/20 16:35:59;;;;;;;17.20;15.77;;;;;;;6.30;100.00;103777.69;2011674;70;32856;-78
2022/01/20 16:41:44;;;;;;;16.50;15.30;;;;;;;6.25;100.00;103779.62;2000375;71;33418;-73
2022/01/20 16:47:29;;;;;;;17.87;16.33;;;;;;;6.27;100.00;103784.45;2000463;71;32852;-73
2022/01/20 16:53:13;;;;;;;17.57;16.47;;;;;;;6.04;100.00;103781.34;1994943;71;33379;-77
2022/01/20 16:58:58;;;;;;;16.80;15.67;;;;;;;5.96;100.00;103782.27;2015297;70;33447;-76
2022/01/20 17:04:44;;;;;;;16.07;14.83;;;;;;;6.17;100.00;103796.25;1998526;71;32887;-71
2022/01/20 17:10:28;;;;;;;15.17;14.17;;;;;;;6.20;100.00;103800.05;2007665;71;32918;-79
2022/01/20 17:16:19;;;;;;;15.67;14.47;;;;;;;6.15;100.00;103808.02;2007844;70;32849;-79
2022/01/20 17:22:03;;;;;;;16.63;15.23;;;;;;;6.17;100.00;103811.42;2016562;71;32856;-77
2022/01/20 17:27:49;;;;;;;17.30;16.00;;;;;;;6.02;100.00;103811.03;1995015;71;33437;-73
2022/01/20 17:33:34;;;;;;;15.90;14.60;;;;;;;5.92;100.00;103822.30;2018294;71;33349;-73
2022/01/20 17:39:23;;;;;;;16.47;15.13;;;;;;;5.85;100.00;103829.05;2014795;71;33449;-77
2022/01/20 17:45:12;;;;;;;18.00;16.70;;;;;;;5.57;100.00;103840.72;2009455;71;32896;-78
2022/01/20 17:50:59;;;;;;;17.47;16.30;;;;;;;5.45;100.00;103841.13;2015152;71;32984;-79
2022/01/20 17:56:43;;;;;;;17.93;16.50;;;;;;;5.53;100.00;103851.25;2018551;71;33337;-77
2022/01/20 18:02:29;;;;;;;16.97;15.70;;;;;;;5.44;100.00;103833.02;1998488;71;32825;-77
2022/01/20 18:08:13;;;;;;;17.10;15.87;;;;;;;5.48;100.00;103848.16;1999296;71;33235;-72
2022/01/20 18:13:59;;;;;;;16.83;15.67;;;;;;;5.39;100.00;103853.39;1991340;71;32786;-75
2022/01/20 18:19:43;;;;;;;17.53;16.13;;;;;;;5.35;100.00;103851.48;2014679;71;32836;-75
2022/01/20 18:25:27;;;;;;;16.97;15.73;;;;;;;5.40;100.00;103866.12;1997252;71;33344;-72
2022/01/20 18:31:11;;;;;;;17.77;16.00;;;;;;;5.33;100.00;103877.00;2005651;71;32851;-75
2022/01/20 18:36:55;;;;;;;20.00;18.20;;;;;;;5.21;100.00;103887.20;2003850;71;33452;-78
2022/01/20 18:42:40;;;;;;;18.00;16.80;;;;;;;5.32;100.00;103895.95;2009882;71;33245;-78
2022/01/20 18:48:25;;;;;;;18.43;17.13;;;;;;;5.44;100.00;103889.53;2016535;71;32946;-74
2022/01/20 18:54:10;;;;;;;19.30;17.70;;;;;;;5.39;100.00;103890.06;2004120;71;32843;-74
2022/01/20 18:59:55;;;;;;;19.97;17.30;;;;;;;5.33;100.00;103903.19;1956308;72;32911;-73
2022/01/20 19:05:39;;;;;;;18.03;16.63;;;;;;;5.32;100.00;103901.46;2011705;71;33326;-71
2022/01/20 19:11:24;;;;;;;20.30;18.87;;;;;;;5.30;100.00;103903.55;1998327;71;33244;-68
2022/01/20 19:17:11;;;;;;;19.13;17.73;;;;;;;5.35;100.00;103910.75;2016523;71;32912;-73
2022/01/20 19:22:56;;;;;;;18.70;17.10;;;;;;;5.35;100.00;103916.78;2017006;71;32909;-72
2022/01/20 19:28:40;;;;;;;17.57;16.10;;;;;;;5.27;100.00;103920.42;2000526;71;33301;-74
2022/01/20 19:34:25;;;;;;;17.83;16.60;;;;;;;5.30;100.00;103926.98;2000157;71;32838;-75
2022/01/20 19:40:14;;;;;;;19.30;17.90;;;;;;;5.29;100.00;103930.77;2011368;71;33309;-74
2022/01/20 19:45:59;;;;;;;17.80;16.60;;;;;;;5.27;100.00;103933.33;2009108;71;33336;-75
2022/01/20 19:51:43;;;;;;;18.07;16.97;;;;;;;5.27;100.00;103935.58;1994823;71;32844;-75
2022/01/20 19:57:27;;;;;;;18.60;17.07;;;;;;;5.28;100.00;103932.30;2004269;71;33283;-72
2022/01/20 20:03:11;;;;;;;18.30;16.80;;;;;;;5.31;100.00;103941.08;2014699;71;32929;-69
2022/01/20 20:08:56;;;;;;;17.70;16.40;;;;;;;5.36;100.00;103944.70;2011335;71;32846;-72
2022/01/20 20:14:41;;;;;;;17.50;16.27;;;;;;;5.34;100.00;103948.16;2009868;71;32776;-73
2022/01/20 20:20:26;;;;;;;18.17;16.77;;;;;;;5.32;100.00;103954.34;2009911;71;32935;-75
2022/01/20 20:26:10;;;;;;;17.97;16.50;;;;;;;5.35;100.00;103949.86;2011339;71;32783;-68
2022/01/20 20:31:55;;;;;;;17.83;16.70;;;;;;;5.21;100.00;103956.97;2002252;71;32891;-67
2022/01/20 20:37:39;;;;;;;20.30;18.40;;;;;;;5.26;100.00;103967.47;2003830;71;32915;-67
2022/01/20 20:43:25;;;;;;;18.33;16.90;;;;;;;5.25;100.00;103969.36;2002622;71;33361;-73
2022/01/20 20:49:11;;;;;;;18.37;16.97;;;;;;;5.24;100.00;103959.36;2005962;71;32819;-71
2022/01/20 20:55:15;;;;;;;18.57;17.20;;;;;;;5.25;100.00;103974.88;2016567;71;32933;-72
2022/01/20 21:01:00;;;;;;;18.10;16.83;;;;;;;5.23;100.00;103970.04;1995188;71;32948;-66
2022/01/20 21:06:44;;;;;;;18.53;17.37;;;;;;;5.27;100.00;103967.79;2005987;71;32784;-66
2022/01/20 21:12:29;;;;;;;18.67;17.37;;;;;;;5.28;100.00;103973.66;2018516;71;33357;-66
2022/01/20 21:18:15;;;;;;;18.93;17.33;;;;;;;5.24;100.00;103980.03;2010968;71;32932;-71
2022/01/20 21:24:00;;;;;;;18.50;17.27;;;;;;;5.16;100.00;103994.34;2010931;71;33316;-71
2022/01/20 21:29:45;;;;;;;18.63;17.03;;;;;;;5.19;100.00;103985.20;2016544;71;33453;-72
2022/01/20 21:35:30;;;;;;;18.20;16.87;;;;;;;4.99;100.00;103983.83;1991647;71;33420;-71
2022/01/20 21:41:17;;;;;;;23.50;21.27;;;;;;;4.90;100.00;103993.98;2011602;71;33258;-71
2022/01/20 21:47:02;;;;;;;19.20;17.70;;;;;;;4.79;100.00;103989.34;2013025;71;32880;-67
2022/01/20 21:52:46;;;;;;;18.43;17.17;;;;;;;4.88;100.00;103992.42;2014570;71;32856;-66
2022/01/20 21:58:32;;;;;;;19.83;18.33;;;;;;;4.89;100.00;103997.77;2010968;71;32848;-71
2022/01/20 22:04:17;;;;;;;17.93;16.60;;;;;;;4.98;100.00;104005.52;1963647;72;33340;-66
2022/01/20 22:10:09;;;;;;;17.90;16.80;;;;;;;5.04;100.00;104010.36;2012765;71;33406;-71
2022/01/20 22:15:50;;;;;;;19.63;18.10;;;;;;;4.98;100.00;104008.28;1994868;71;32786;-68
2022/01/20 22:21:36;;;;;;;18.90;17.20;;;;;;;4.99;100.00;104008.63;2000457;71;32885;-68
2022/01/20 22:27:21;;;;;;;18.67;17.37;;;;;;;5.00;100.00;104013.98;2000516;71;33383;-67
2022/01/20 22:33:08;;;;;;;20.40;19.00;;;;;;;4.89;100.00;104019.80;2016584;71;33309;-72
2022/01/20 22:38:52;;;;;;;19.97;18.60;;;;;;;4.98;100.00;104024.81;2014537;71;32859;-71
2022/01/20 22:44:38;;;;;;;19.13;17.93;;;;;;;5.03;100.00;104028.78;2010975;71;32923;-67
2022/01/20 22:50:24;;;;;;;18.83;17.70;;;;;;;4.99;100.00;104019.14;2014720;71;32848;-72
2022/01/20 22:56:08;;;;;;;22.47;20.87;;;;;;;4.99;100.00;104021.89;2004157;71;32929;-72
2022/01/20 23:01:53;;;;;;;20.53;18.97;;;;;;;4.60;100.00;104027.67;1998826;71;32863;-67
2022/01/20 23:07:38;;;;;;;19.90;18.80;;;;;;;4.93;100.00;104027.20;2013323;71;32789;-67
2022/01/20 23:13:25;;;;;;;22.10;20.53;;;;;;;4.56;100.00;104019.40;2014516;71;32823;-72
2022/01/20 23:25:14;;;;;;;24.30;22.70;;;;;;;4.64;100.00;104026.30;2014890;71;32946;-67
2022/01/20 23:31:01;;;;;;;26.07;24.30;;;;;;;4.40;100.00;104022.98;1999499;70;32915;-67
2022/01/20 23:36:46;;;;;;;26.50;24.30;;;;;;;4.10;100.00;104018.91;2009100;71;32849;-72
2022/01/20 23:42:40;;;;;;;28.80;26.77;;;;;;;3.89;100.00;104028.59;2009748;71;33308;-72
2022/01/20 23:48:19;;;;;;;31.90;29.57;;;;;;;3.64;100.00;104029.80;2014642;71;32806;-72
2022/01/20 23:54:04;;;;;;;31.17;29.17;;;;;;;3.78;100.00;104026.09;2005450;71;32873;-67
2022/01/20 23:59:48;;;;;;;30.93;28.70;;;;;;;3.74;100.00;104031.58;2004265;71;33306;-66
